Tidd Dale, Ohio
Current Conditions -  °F | °C
As of 1:53 AM on Friday 28 Nov 2014 (Local Time) from KHLG Reporting Station
Broken Clouds Broken Clouds  
Wind Chill: 18°   Ceiling: 1700
Heat Index: 27°   Visibility: 10mi
Dew Point: 21°   Wind: 9mph
Humidity: 78%   Direction: 270°W
Pressure: 30.24"   Gusts: NA
Location:  40.2717°N, 80.6513°W
Report Text: KHLG 280653Z AUTO 27008KT 10SM BKN017 BKN070 M03/M06 A3024 RMK AO2 SLP255 T10281061
Loading
Personal Weather Stations






























Interactive Weather Map New forecast layout! Learn more

10-Day Weather Forecast

Advertisements
Track Severe Weather on mobile